Terminal Aerodrome Forecast
Issued by NWS Grand Junction, CO

Home | Current Version | Previous Version | Text Only | Print | Product List | Glossary On
Versions: 1 2 3 4 5 6 7 8 9 10 11 12 13 14 15 16 17 18 19 20 21 22 23 24 25 26
000
FTUS45 KGJT 011126
TAFGJT
TAF
KGJT 011126Z 0112/0212 06005KT P6SM FEW140 BKN200
     FM011300 14008KT P6SM FEW140 BKN200
     FM011900 26007KT P6SM FEW100 BKN200
     FM012100 29008KT P6SM VCTS SCT090CB BKN200
      TEMPO 0121/0201 VRB15G25KT -TSRA SCT070 BKN090CB
     FM020300 05005KT P6SM FEW090 BKN200
     FM020600 10008KT P6SM SCT200=

USA.gov is the U.S. government's official web portal to all federal, state and local government web resources and services.